Time;durP1;ratioP1;P1;durP2;ratioP2;P2;SDS_P1;SDS_P2;PMS_P1;PMS_P2;Temp;Humidity;BMP_temperature;BMP_pressure;BME280_temperature;BME280_humidity;BME280_pressure;Samples;Min_cycle;Max_cycle;Signal;HPM_P1;HPM_P2
2021/04/21 04:02:32;;;;;;;25.80;21.47;;;6.50;99.90;;;;;;5050365;23;20516;-64
2021/04/21 04:05:03;;;;;;;24.50;20.10;;;6.50;99.90;;;;;;4975266;28;20443;-64
2021/04/21 04:07:37;;;;;;;25.80;20.80;;;6.60;99.90;;;;;;4975106;28;20446;-65
2021/04/21 04:10:05;;;;;;;23.00;20.53;;;6.60;99.90;;;;;;4975205;28;20493;-65
2021/04/21 04:12:35;;;;;;;25.03;20.87;;;6.60;99.90;;;;;;4975404;28;20837;-64
2021/04/21 04:15:02;;;;;;;27.00;22.70;;;6.60;99.90;;;;;;4975872;28;20435;-64
2021/04/21 04:17:32;;;;;;;27.50;23.17;;;6.60;99.90;;;;;;4984055;28;20450;-64
2021/04/21 04:19:59;;;;;;;27.60;23.70;;;6.50;99.90;;;;;;4988116;28;20751;-64
2021/04/21 04:22:30;;;;;;;28.30;23.87;;;6.40;99.90;;;;;;4975310;28;20487;-64
2021/04/21 04:24:57;;;;;;;28.80;23.17;;;6.30;99.90;;;;;;4975365;28;20795;-64
2021/04/21 04:27:26;;;;;;;30.90;24.47;;;6.30;99.90;;;;;;4975246;28;20447;-65
2021/04/21 04:29:54;;;;;;;29.53;24.57;;;6.30;99.90;;;;;;4974881;28;20972;-64
2021/04/21 04:32:22;;;;;;;28.93;24.43;;;6.20;99.90;;;;;;4974528;28;20985;-65
2021/04/21 04:34:50;;;;;;;28.40;25.03;;;6.20;99.90;;;;;;4974823;28;20439;-64
2021/04/21 04:37:20;;;;;;;28.33;23.23;;;6.30;99.90;;;;;;4975306;28;20473;-64
2021/04/21 04:39:47;;;;;;;29.43;22.73;;;6.40;99.90;;;;;;4974945;28;20458;-65
2021/04/21 04:42:14;;;;;;;28.60;23.50;;;6.40;99.90;;;;;;4974489;28;20496;-65
2021/04/21 04:44:42;;;;;;;28.17;23.53;;;6.50;99.90;;;;;;4974763;28;20458;-65
2021/04/21 04:47:11;;;;;;;26.70;23.17;;;6.50;99.90;;;;;;4974679;28;20949;-65
2021/04/21 04:49:43;;;;;;;26.13;22.37;;;6.40;99.90;;;;;;4974926;28;20987;-65
2021/04/21 04:52:13;;;;;;;28.40;22.17;;;6.50;99.90;;;;;;4974998;28;20475;-65
2021/04/21 04:54:40;;;;;;;25.57;22.87;;;6.60;99.90;;;;;;4978625;28;20530;-65
2021/04/21 04:57:09;;;;;;;27.00;23.27;;;6.60;99.90;;;;;;4978867;28;20466;-65
2021/04/21 04:59:37;;;;;;;29.93;22.73;;;6.60;99.90;;;;;;4978738;28;20789;-65
2021/04/21 05:02:06;;;;;;;26.10;21.93;;;6.60;99.90;;;;;;4978363;28;20482;-65
2021/04/21 05:04:36;;;;;;;25.27;22.03;;;6.70;99.90;;;;;;4978787;28;20597;-65
2021/04/21 05:07:05;;;;;;;27.40;22.83;;;6.70;99.90;;;;;;4978832;28;20438;-65
2021/04/21 05:09:40;;;;;;;26.63;23.03;;;6.70;99.90;;;;;;4978884;28;20458;-65
2021/04/21 05:12:10;;;;;;;29.27;23.07;;;6.70;99.90;;;;;;4978772;28;20474;-66
2021/04/21 05:14:38;;;;;;;30.27;26.30;;;6.80;99.90;;;;;;4978486;28;20527;-65
2021/04/21 05:17:47;;;;;;;31.30;25.60;;;6.80;99.90;;;;;;4978267;28;20968;-65
2021/04/21 05:20:48;;;;;;;30.20;25.90;;;6.90;99.90;;;;;;4978040;28;20462;-64
2021/04/21 05:23:54;;;;;;;32.53;27.03;;;6.90;99.90;;;;;;4978302;28;20489;-64
2021/04/21 05:26:53;;;;;;;31.37;24.63;;;6.90;99.90;;;;;;4977781;28;20813;-64
2021/04/21 05:29:51;;;;;;;29.43;23.70;;;6.70;99.90;;;;;;4969480;28;20454;-63
2021/04/21 05:33:09;;;;;;;30.17;26.63;;;6.60;99.90;;;;;;4979175;28;20466;-64
2021/04/21 05:36:12;;;;;;;32.03;24.63;;;6.50;99.90;;;;;;4937126;29;20440;-63
2021/04/21 05:39:15;;;;;;;31.47;24.73;;;6.50;99.90;;;;;;4937038;29;20839;-63
2021/04/21 05:42:21;;;;;;;28.17;22.90;;;6.60;99.90;;;;;;4978343;28;20474;-63
2021/04/21 05:45:25;;;;;;;26.50;23.63;;;6.80;99.90;;;;;;4977798;28;20454;-63
2021/04/21 05:48:13;;;;;;;26.53;21.43;;;7.20;99.90;;;;;;4977531;28;20446;-64
2021/04/21 05:51:36;;;;;;;26.70;22.53;;;7.80;99.90;;;;;;4977646;28;20473;-60
2021/04/21 05:54:20;;;;;;;26.37;22.33;;;8.20;99.90;;;;;;4977413;28;20824;-65
2021/04/21 05:57:15;;;;;;;29.23;21.57;;;8.50;99.90;;;;;;4977391;28;20983;-63
2021/04/21 06:00:18;;;;;;;23.87;21.33;;;8.80;99.90;;;;;;4977415;28;20446;-61
2021/04/21 06:02:46;;;;;;;24.47;20.40;;;9.10;99.90;;;;;;4977581;28;20459;-65
2021/04/21 06:05:16;;;;;;;28.40;20.33;;;9.30;99.90;;;;;;4977442;28;20450;-65
2021/04/21 06:07:43;;;;;;;21.47;19.17;;;9.70;99.90;;;;;;4977440;28;20463;-65
2021/04/21 06:10:21;;;;;;;23.90;19.67;;;10.20;99.90;;;;;;4977202;28;20461;-64
2021/04/21 06:12:50;;;;;;;21.90;19.63;;;10.70;99.90;;;;;;4977870;28;20521;-65
2021/04/21 06:15:22;;;;;;;22.87;20.30;;;11.10;99.90;;;;;;4977973;28;20461;-65
2021/04/21 06:17:53;;;;;;;21.97;19.70;;;11.50;99.90;;;;;;4978166;28;20453;-65
2021/04/21 06:20:29;;;;;;;22.47;19.97;;;11.80;99.90;;;;;;4977271;28;20450;-65
2021/04/21 06:22:59;;;;;;;23.07;20.10;;;12.30;99.90;;;;;;4977210;28;20469;-65
2021/04/21 06:25:26;;;;;;;24.50;21.10;;;12.60;99.90;;;;;;4977010;28;20458;-65
2021/04/21 06:28:06;;;;;;;22.70;20.30;;;12.50;99.90;;;;;;4976986;28;20509;-65
2021/04/21 06:30:32;;;;;;;23.17;20.77;;;12.60;99.90;;;;;;4976852;28;20478;-65
2021/04/21 06:32:59;;;;;;;23.23;20.90;;;12.60;99.90;;;;;;4977099;28;20821;-65
2021/04/21 06:35:29;;;;;;;23.17;20.87;;;13.10;99.90;;;;;;4977033;28;20469;-64
2021/04/21 06:37:56;;;;;;;24.80;20.70;;;13.30;99.90;;;;;;4977084;28;20473;-65
2021/04/21 06:40:25;;;;;;;23.53;21.23;;;13.70;99.90;;;;;;4976680;28;20461;-63
2021/04/21 06:42:52;;;;;;;23.73;21.43;;;14.00;99.90;;;;;;4976444;28;20969;-65
2021/04/21 06:45:23;;;;;;;22.57;20.27;;;14.20;99.90;;;;;;4978921;28;20455;-65
2021/04/21 06:47:49;;;;;;;28.43;22.60;;;14.30;99.90;;;;;;4993651;28;20439;-66
2021/04/21 06:50:16;;;;;;;25.33;21.27;;;14.60;99.90;;;;;;4978620;28;20778;-66
2021/04/21 06:52:44;;;;;;;23.10;20.83;;;14.90;99.90;;;;;;4976691;28;20461;-65
2021/04/21 06:55:12;;;;;;;26.03;20.53;;;15.20;99.90;;;;;;4976359;28;20968;-66
2021/04/21 06:57:38;;;;;;;23.90;21.50;;;15.00;99.90;;;;;;4976393;28;20459;-66
2021/04/21 07:00:10;;;;;;;24.60;22.33;;;14.80;99.90;;;;;;4976372;28;20461;-66
2021/04/21 07:02:38;;;;;;;26.47;22.33;;;15.30;99.90;;;;;;4975753;28;20482;-66
2021/04/21 07:05:07;;;;;;;25.33;22.90;;;15.70;99.90;;;;;;4976269;28;20557;-66
2021/04/21 07:07:34;;;;;;;25.43;22.60;;;16.10;99.90;;;;;;4976099;28;20556;-66
2021/04/21 07:10:02;;;;;;;26.20;23.60;;;16.30;99.90;;;;;;4976192;28;20810;-66
2021/04/21 07:12:30;;;;;;;24.93;22.33;;;16.50;99.90;;;;;;4976011;28;20470;-64
2021/04/21 07:14:57;;;;;;;25.10;22.70;;;17.10;99.90;;;;;;4976072;28;20463;-65
2021/04/21 07:17:23;;;;;;;24.20;21.93;;;17.20;99.30;;;;;;4975590;28;20811;-66
2021/04/21 07:19:49;;;;;;;25.80;23.30;;;17.50;99.10;;;;;;4976011;28;20458;-64
2021/04/21 07:22:17;;;;;;;25.90;23.30;;;17.60;98.70;;;;;;4975594;28;20981;-65
2021/04/21 07:24:45;;;;;;;24.27;21.70;;;17.90;97.90;;;;;;4976326;28;20473;-65
2021/04/21 07:27:13;;;;;;;24.87;22.30;;;18.40;96.70;;;;;;4975945;28;20573;-65
2021/04/21 07:29:45;;;;;;;25.60;23.00;;;18.50;95.20;;;;;;4975823;28;20461;-65
2021/04/21 07:32:18;;;;;;;26.37;23.80;;;18.90;95.10;;;;;;4975859;28;20481;-66
2021/04/21 07:34:45;;;;;;;26.43;23.97;;;19.30;95.30;;;;;;4975717;28;20824;-65
2021/04/21 07:37:11;;;;;;;26.67;23.97;;;19.50;93.40;;;;;;4975701;28;20458;-64
2021/04/21 07:39:43;;;;;;;25.43;23.23;;;20.20;91.80;;;;;;4975513;28;20439;-65
2021/04/21 07:42:16;;;;;;;25.00;22.77;;;19.80;91.90;;;;;;4975398;28;20486;-66
2021/04/21 07:44:51;;;;;;;25.07;22.53;;;19.80;91.10;;;;;;4975672;28;20493;-66
2021/04/21 07:47:18;;;;;;;26.30;23.80;;;20.00;90.40;;;;;;4975509;28;20439;-65
2021/04/21 07:49:53;;;;;;;26.60;24.20;;;20.20;89.70;;;;;;4975186;28;20443;-66
2021/04/21 07:52:27;;;;;;;25.33;22.83;;;20.40;87.50;;;;;;4976383;28;20482;-66
2021/04/21 07:55:07;;;;;;;26.10;23.53;;;20.10;90.80;;;;;;4975163;28;20455;-66
2021/04/21 07:57:34;;;;;;;26.40;23.80;;;20.60;87.70;;;;;;4975546;28;20533;-65
2021/04/21 08:00:01;;;;;;;26.40;24.00;;;20.80;87.50;;;;;;4975362;28;20461;-65
2021/04/21 08:02:30;;;;;;;24.93;22.37;;;21.40;84.80;;;;;;4974830;28;20486;-65
2021/04/21 08:04:57;;;;;;;24.37;22.20;;;21.80;85.30;;;;;;4975262;28;20455;-65
2021/04/21 08:07:54;;;;;;;25.90;23.57;;;22.00;81.80;;;;;;4974978;28;20911;-65
2021/04/21 08:10:26;;;;;;;27.27;24.77;;;22.10;79.10;;;;;;4974242;28;20949;-65
2021/04/21 08:12:54;;;;;;;25.80;23.43;;;21.60;79.60;;;;;;4975113;28;20446;-65
2021/04/21 08:15:27;;;;;;;24.90;22.37;;;21.80;82.70;;;;;;4975105;28;20477;-66
2021/04/21 08:17:56;;;;;;;27.13;24.63;;;22.50;80.00;;;;;;4974638;28;20478;-66
2021/04/21 08:20:26;;;;;;;26.83;24.43;;;23.10;75.40;;;;;;4974765;28;20778;-65
2021/04/21 08:22:54;;;;;;;27.90;25.40;;;23.10;74.80;;;;;;4974986;28;20471;-66
2021/04/21 08:25:20;;;;;;;27.47;24.77;;;23.00;77.00;;;;;;4974927;28;20465;-66
2021/04/21 08:27:47;;;;;;;25.03;22.90;;;23.50;71.50;;;;;;4974153;28;20458;-66
2021/04/21 08:30:15;;;;;;;25.30;23.20;;;22.90;72.10;;;;;;4974690;28;20814;-66
2021/04/21 08:32:41;;;;;;;28.53;25.97;;;23.20;73.80;;;;;;4975054;28;20451;-66
2021/04/21 08:35:09;;;;;;;26.60;24.23;;;23.10;70.10;;;;;;4975045;28;20465;-66
2021/04/21 08:37:35;;;;;;;27.00;24.53;;;23.80;71.00;;;;;;4974777;28;20821;-65
2021/04/21 08:40:01;;;;;;;25.73;23.53;;;23.80;66.60;;;;;;4974452;28;20462;-66
2021/04/21 08:42:29;;;;;;;26.87;24.63;;;24.20;71.90;;;;;;4974224;28;21051;-66
2021/04/21 08:44:57;;;;;;;26.83;24.40;;;25.00;68.40;;;;;;4974770;28;20462;-65
2021/04/21 08:47:25;;;;;;;27.40;24.97;;;24.80;65.70;;;;;;4975080;28;20443;-65
2021/04/21 08:49:54;;;;;;;26.87;24.23;;;24.20;67.20;;;;;;4975419;28;20458;-65
2021/04/21 08:52:23;;;;;;;27.13;24.50;;;24.70;66.30;;;;;;4974694;28;20478;-64
2021/04/21 08:54:53;;;;;;;26.73;24.43;;;25.00;70.10;;;;;;4975134;28;20462;-65
2021/04/21 08:57:20;;;;;;;25.53;23.30;;;25.30;64.90;;;;;;4974863;28;20443;-65
2021/04/21 08:59:47;;;;;;;25.93;23.70;;;26.10;65.60;;;;;;4974868;28;20458;-65
2021/04/21 09:02:15;;;;;;;26.37;24.20;;;27.20;59.20;;;;;;4974367;28;20493;-65
2021/04/21 09:04:42;;;;;;;25.23;23.03;;;27.30;58.60;;;;;;4974963;28;20455;-64
2021/04/21 09:07:08;;;;;;;25.10;23.00;;;26.70;58.20;;;;;;4976522;28;20458;-65
2021/04/21 09:09:35;;;;;;;26.03;23.63;;;26.50;57.10;;;;;;4980929;28;20462;-65
2021/04/21 09:12:01;;;;;;;24.37;22.17;;;25.90;63.40;;;;;;4978566;28;20986;-65
2021/04/21 09:14:28;;;;;;;24.67;22.57;;;26.90;57.60;;;;;;4978205;28;20455;-65
2021/04/21 09:16:54;;;;;;;24.97;22.90;;;27.10;58.10;;;;;;4977858;28;20941;-65
2021/04/21 09:19:21;;;;;;;25.07;23.03;;;27.20;59.50;;;;;;4977528;28;20458;-65
2021/04/21 09:22:02;;;;;;;22.87;20.97;;;27.50;62.60;;;;;;4976992;28;20474;-65
2021/04/21 09:24:28;;;;;;;23.37;20.73;;;27.70;60.30;;;;;;4975260;28;20446;-65
2021/04/21 09:26:55;;;;;;;21.80;19.90;;;26.80;53.40;;;;;;4974468;28;20454;-65
2021/04/21 09:29:25;;;;;;;20.20;18.37;;;27.00;59.20;;;;;;4974679;28;20459;-65
2021/04/21 09:32:06;;;;;;;19.00;17.50;;;27.30;52.80;;;;;;4974791;28;20479;-65
2021/04/21 09:34:32;;;;;;;18.97;17.33;;;27.40;52.50;;;;;;4989753;28;20435;-65
2021/04/21 09:36:59;;;;;;;18.00;16.43;;;27.40;52.40;;;;;;4995221;28;20447;-64
2021/04/21 09:39:25;;;;;;;17.77;16.23;;;26.70;55.60;;;;;;4977118;28;20616;-65
2021/04/21 09:42:00;;;;;;;21.00;19.20;;;27.40;54.50;;;;;;4978526;28;20481;-65
2021/04/21 09:44:29;;;;;;;20.77;18.43;;;26.50;54.40;;;;;;4977944;28;20434;-65
2021/04/21 09:46:56;;;;;;;20.37;18.57;;;26.80;52.70;;;;;;4977784;28;20455;-65
2021/04/21 09:49:34;;;;;;;19.87;18.17;;;27.60;51.40;;;;;;4977612;28;20984;-65
2021/04/21 09:52:02;;;;;;;19.67;17.97;;;27.30;54.60;;;;;;4977818;28;20505;-65
2021/04/21 09:54:31;;;;;;;19.50;17.70;;;27.40;52.50;;;;;;4977557;28;20825;-64
2021/04/21 09:57:08;;;;;;;17.30;16.00;;;27.80;51.80;;;;;;4978170;28;20454;-65
2021/04/21 09:59:34;;;;;;;14.37;13.17;;;28.00;52.00;;;;;;4977790;28;20485;-64
2021/04/21 10:02:01;;;;;;;16.13;14.63;;;27.80;54.90;;;;;;4977059;28;20482;-64
2021/04/21 10:04:29;;;;;;;15.70;14.40;;;27.70;54.20;;;;;;4977548;28;20537;-65
2021/04/21 10:06:56;;;;;;;16.87;15.47;;;27.60;51.80;;;;;;4977641;28;20600;-65
2021/04/21 10:09:31;;;;;;;16.80;15.20;;;28.00;50.00;;;;;;4977863;28;20458;-65
2021/04/21 10:12:15;;;;;;;15.20;14.00;;;27.70;52.00;;;;;;4977687;28;20478;-66
2021/04/21 10:14:42;;;;;;;15.27;13.97;;;28.40;53.50;;;;;;4977374;28;20454;-69
2021/04/21 10:17:09;;;;;;;15.63;14.40;;;28.40;49.30;;;;;;4977391;28;20454;-67
2021/04/21 10:19:36;;;;;;;16.53;15.23;;;28.70;47.00;;;;;;4977445;28;20470;-67
2021/04/21 10:22:03;;;;;;;16.43;15.23;;;28.10;46.50;;;;;;4977022;28;20487;-67
2021/04/21 10:24:30;;;;;;;16.43;15.03;;;28.30;50.40;;;;;;4976911;28;20450;-66
2021/04/21 10:26:57;;;;;;;15.03;13.83;;;28.50;46.80;;;;;;4976990;28;20466;-67
2021/04/21 10:29:23;;;;;;;15.17;13.70;;;28.70;46.80;;;;;;4976963;28;20465;-67
2021/04/21 10:31:52;;;;;;;14.67;13.60;;;29.10;47.50;;;;;;4976981;28;20855;-67
2021/04/21 10:34:20;;;;;;;15.53;14.23;;;29.00;46.20;;;;;;4977274;28;20458;-67
2021/04/21 10:36:49;;;;;;;15.80;14.50;;;28.60;45.90;;;;;;4976905;28;20459;-67
2021/04/21 10:39:28;;;;;;;16.20;14.90;;;28.40;46.50;;;;;;4976965;28;20462;-67
2021/04/21 10:42:11;;;;;;;15.00;13.50;;;28.50;43.90;;;;;;4976984;28;20478;-66
2021/04/21 10:44:38;;;;;;;14.20;13.10;;;27.40;45.70;;;;;;4977799;28;20443;-64
2021/04/21 10:47:09;;;;;;;14.30;13.10;;;27.40;47.90;;;;;;4977269;28;20454;-64
2021/04/21 10:49:43;;;;;;;13.87;12.70;;;26.80;48.70;;;;;;4977582;28;20443;-64
2021/04/21 10:52:15;;;;;;;12.50;11.50;;;26.90;46.30;;;;;;4977207;28;20470;-64
2021/04/21 10:54:42;;;;;;;12.47;11.47;;;26.20;46.70;;;;;;4977748;28;20454;-63
2021/04/21 10:57:30;;;;;;;13.17;11.97;;;26.10;50.90;;;;;;4977289;28;20458;-65
2021/04/21 11:00:15;;;;;;;15.67;14.27;;;26.10;51.30;;;;;;4976936;28;20450;-63
2021/04/21 11:02:55;;;;;;;15.63;14.43;;;26.20;49.40;;;;;;4977008;28;20522;-64
2021/04/21 11:05:27;;;;;;;14.40;13.10;;;26.70;51.00;;;;;;4976682;28;20439;-64
2021/04/21 11:07:59;;;;;;;13.00;11.90;;;26.50;49.60;;;;;;4976943;28;20472;-64
2021/04/21 11:10:58;;;;;;;12.53;11.53;;;26.60;49.20;;;;;;4976464;28;20434;-63
2021/04/21 11:13:40;;;;;;;12.50;11.40;;;27.10;45.20;;;;;;4966442;28;20462;-64
2021/04/21 11:16:22;;;;;;;13.67;12.30;;;27.10;49.70;;;;;;4977279;28;20458;-64
2021/04/21 11:18:48;;;;;;;13.40;12.30;;;27.00;46.70;;;;;;4975827;28;20462;-65
2021/04/21 11:21:19;;;;;;;14.50;13.17;;;26.40;50.20;;;;;;4976437;28;20479;-66
2021/04/21 11:23:55;;;;;;;13.20;12.20;;;25.90;49.60;;;;;;4976161;28;20463;-64
2021/04/21 11:26:41;;;;;;;14.50;13.10;;;25.60;49.20;;;;;;4975958;28;20458;-64
2021/04/21 11:29:14;;;;;;;13.77;12.53;;;25.20;46.10;;;;;;4975975;28;20439;-64
2021/04/21 11:32:12;;;;;;;13.07;11.97;;;25.30;48.90;;;;;;4975979;28;20479;-65
2021/04/21 11:34:39;;;;;;;13.57;12.37;;;25.20;51.50;;;;;;4976150;28;20477;-65
2021/04/21 11:37:07;;;;;;;13.93;12.70;;;24.60;51.80;;;;;;4976108;28;20447;-64
2021/04/21 11:40:02;;;;;;;12.93;11.90;;;24.40;50.30;;;;;;4975721;28;20455;-64
2021/04/21 11:42:37;;;;;;;12.80;11.80;;;24.40;50.70;;;;;;4975791;28;20581;-64
2021/04/21 11:45:18;;;;;;;13.10;12.10;;;24.40;52.30;;;;;;4975933;28;20493;-63
2021/04/21 11:47:46;;;;;;;13.73;12.53;;;24.50;51.90;;;;;;4975700;28;20442;-64
2021/04/21 11:50:15;;;;;;;11.50;10.50;;;24.70;51.70;;;;;;4975699;28;20454;-64
2021/04/21 11:52:43;;;;;;;11.60;10.60;;;24.60;52.30;;;;;;4976029;28;20501;-64
2021/04/21 11:55:10;;;;;;;11.33;10.40;;;24.60;51.20;;;;;;4975687;28;20500;-65
2021/04/21 11:57:37;;;;;;;12.60;11.60;;;24.20;49.70;;;;;;4975853;28;20458;-64
2021/04/21 12:00:05;;;;;;;13.33;12.13;;;23.50;49.90;;;;;;4976593;28;20455;-64
2021/04/21 12:02:33;;;;;;;12.93;11.60;;;23.50;50.20;;;;;;4975523;28;20482;-64
2021/04/21 12:05:00;;;;;;;13.37;12.17;;;23.50;50.10;;;;;;4975545;28;20463;-64
2021/04/21 12:07:27;;;;;;;11.30;10.40;;;23.60;49.50;;;;;;4975035;28;20455;-64
2021/04/21 12:09:53;;;;;;;11.67;10.63;;;23.70;50.00;;;;;;4975043;28;20454;-65
2021/04/21 12:12:23;;;;;;;11.70;10.80;;;23.90;52.80;;;;;;4975474;28;20478;-64
2021/04/21 12:15:01;;;;;;;11.73;10.73;;;23.80;50.30;;;;;;4979708;28;20466;-64
2021/04/21 12:17:28;;;;;;;10.73;9.90;;;23.50;48.70;;;;;;4977072;28;20442;-65
2021/04/21 12:19:57;;;;;;;10.90;9.90;;;23.20;49.70;;;;;;4975601;28;20521;-64
2021/04/21 12:22:38;;;;;;;9.60;8.90;;;22.70;49.50;;;;;;4975351;28;20576;-65
2021/04/21 12:25:06;;;;;;;11.10;10.10;;;22.50;50.80;;;;;;4975406;28;20442;-64
2021/04/21 12:27:32;;;;;;;10.20;9.20;;;22.50;51.90;;;;;;4990882;28;20461;-64
2021/04/21 12:30:12;;;;;;;9.27;8.37;;;22.60;49.00;;;;;;4987751;28;20450;-65
2021/04/21 12:32:38;;;;;;;9.87;9.10;;;22.70;50.10;;;;;;4975706;28;20477;-63
2021/04/21 12:35:08;;;;;;;11.13;10.23;;;22.80;47.50;;;;;;4975053;28;20477;-64
2021/04/21 12:37:35;;;;;;;10.90;10.00;;;23.00;47.80;;;;;;4975036;28;20459;-64
2021/04/21 12:40:01;;;;;;;12.00;11.00;;;23.10;47.50;;;;;;4974886;28;20454;-64
2021/04/21 12:42:27;;;;;;;11.70;10.60;;;22.80;48.10;;;;;;4974746;28;20541;-65
2021/04/21 12:44:53;;;;;;;10.33;9.47;;;23.00;48.80;;;;;;4974596;28;20466;-64
2021/04/21 12:47:20;;;;;;;11.53;10.43;;;23.30;52.60;;;;;;4974893;28;20458;-65
2021/04/21 12:49:48;;;;;;;11.50;10.50;;;23.20;50.80;;;;;;4974785;28;20467;-65
2021/04/21 12:52:17;;;;;;;10.83;9.93;;;23.20;50.20;;;;;;4974582;28;20478;-65
2021/04/21 12:54:46;;;;;;;11.33;10.47;;;22.70;52.50;;;;;;4974762;28;20438;-65
2021/04/21 12:57:14;;;;;;;11.53;10.53;;;22.60;51.00;;;;;;4974555;28;20462;-65
2021/04/21 12:59:42;;;;;;;10.90;9.90;;;22.90;52.60;;;;;;4974765;28;20458;-65
2021/04/21 13:02:12;;;;;;;11.23;10.23;;;23.10;51.10;;;;;;4974257;28;20505;-66
2021/04/21 13:04:39;;;;;;;11.33;10.47;;;23.00;50.70;;;;;;4974880;28;20795;-64
2021/04/21 13:07:17;;;;;;;10.93;9.93;;;22.70;50.80;;;;;;4974782;28;20454;-65
2021/04/21 13:09:44;;;;;;;9.63;8.83;;;22.80;51.70;;;;;;4974739;28;20469;-65
2021/04/21 13:12:12;;;;;;;9.30;8.50;;;22.60;49.00;;;;;;4974499;28;20474;-64
2021/04/21 13:14:39;;;;;;;9.80;9.00;;;22.10;48.70;;;;;;4976368;28;20506;-64
2021/04/21 13:17:08;;;;;;;11.23;10.33;;;22.00;48.60;;;;;;4978365;28;20454;-64
2021/04/21 13:19:35;;;;;;;10.57;9.47;;;21.60;51.40;;;;;;4978375;28;20799;-64
2021/04/21 13:22:07;;;;;;;10.10;9.10;;;21.40;50.40;;;;;;4978226;28;20466;-64
2021/04/21 13:24:49;;;;;;;10.40;9.60;;;21.00;52.00;;;;;;4978698;28;20478;-64
2021/04/21 13:27:18;;;;;;;9.60;8.80;;;20.60;51.20;;;;;;4979713;28;20454;-64
2021/04/21 13:29:53;;;;;;;9.70;8.73;;;20.50;53.40;;;;;;4983024;28;20461;-65
2021/04/21 13:32:20;;;;;;;8.03;7.43;;;20.60;53.10;;;;;;4983717;28;20509;-65
2021/04/21 13:34:46;;;;;;;9.90;9.00;;;20.70;52.60;;;;;;4984098;28;20458;-64
2021/04/21 13:37:12;;;;;;;9.40;8.70;;;20.70;51.00;;;;;;4984183;28;20481;-65
2021/04/21 13:39:39;;;;;;;6.57;6.17;;;21.10;49.90;;;;;;4981237;28;20862;-64
2021/04/21 13:42:07;;;;;;;7.40;6.90;;;21.40;48.80;;;;;;4981249;28;20993;-65
2021/04/21 13:44:33;;;;;;;6.60;6.10;;;21.70;49.60;;;;;;4981154;28;20506;-65
2021/04/21 13:46:59;;;;;;;7.60;7.00;;;21.80;48.60;;;;;;4979914;28;20459;-65
2021/04/21 13:49:25;;;;;;;8.80;7.97;;;21.70;49.00;;;;;;4980670;28;20462;-65
2021/04/21 13:51:52;;;;;;;7.97;7.37;;;21.80;47.60;;;;;;4981745;28;20478;-65
2021/04/21 13:54:19;;;;;;;8.10;7.40;;;21.90;51.10;;;;;;4980416;28;20454;-65
2021/04/21 13:56:45;;;;;;;9.23;8.43;;;22.10;52.20;;;;;;4980948;28;20458;-65
2021/04/21 13:59:12;;;;;;;9.03;8.33;;;22.50;51.60;;;;;;4981150;28;20461;-66
2021/04/21 14:01:39;;;;;;;8.30;7.50;;;22.80;51.90;;;;;;4979890;28;20490;-65
2021/04/21 14:04:06;;;;;;;7.73;7.13;;;22.60;49.20;;;;;;4979725;28;20894;-66
2021/04/21 14:06:32;;;;;;;7.43;6.80;;;22.30;50.40;;;;;;4978109;28;20827;-65
2021/04/21 14:08:58;;;;;;;8.20;7.53;;;22.20;50.40;;;;;;4978117;28;20465;-65
2021/04/21 14:11:24;;;;;;;7.57;6.97;;;22.40;50.50;;;;;;4977494;28;20530;-65
2021/04/21 14:13:52;;;;;;;7.00;6.50;;;22.40;48.50;;;;;;4977517;28;20470;-65
2021/04/21 14:16:19;;;;;;;5.80;5.40;;;22.60;52.30;;;;;;4977465;28;20545;-65
2021/04/21 14:18:45;;;;;;;5.80;5.40;;;22.50;46.90;;;;;;4977994;28;20807;-64
2021/04/21 14:21:12;;;;;;;6.37;5.83;;;22.80;50.20;;;;;;4978188;28;20478;-64
2021/04/21 14:23:38;;;;;;;6.10;5.67;;;23.20;51.90;;;;;;4978495;28;20876;-65
2021/04/21 14:26:04;;;;;;;4.67;4.37;;;23.20;47.70;;;;;;4979671;28;20443;-64
2021/04/21 14:28:30;;;;;;;5.70;5.20;;;23.20;46.50;;;;;;4979832;28;20455;-65
2021/04/21 14:30:57;;;;;;;5.20;4.70;;;23.00;47.40;;;;;;4979874;28;20530;-65
2021/04/21 14:33:24;;;;;;;5.40;5.00;;;23.00;46.40;;;;;;4980610;28;20852;-65
2021/04/21 14:35:50;;;;;;;6.97;6.37;;;22.90;47.60;;;;;;4980217;28;20450;-64
2021/04/21 14:38:16;;;;;;;6.50;6.00;;;22.80;46.50;;;;;;4980275;28;20458;-64
2021/04/21 14:40:42;;;;;;;5.00;4.53;;;22.80;47.40;;;;;;4980790;28;20481;-64
2021/04/21 14:43:09;;;;;;;6.30;5.70;;;22.50;46.80;;;;;;4980756;28;20474;-64
2021/04/21 14:45:35;;;;;;;4.97;4.67;;;22.70;48.90;;;;;;4980012;28;20466;-65
2021/04/21 14:48:01;;;;;;;5.17;4.77;;;22.70;45.70;;;;;;4979870;28;20482;-65
2021/04/21 14:50:28;;;;;;;4.37;4.10;;;22.90;47.00;;;;;;4977829;28;20455;-64
2021/04/21 14:52:54;;;;;;;4.67;4.37;;;23.10;44.60;;;;;;4976549;28;20450;-64
2021/04/21 14:55:20;;;;;;;5.40;5.00;;;23.00;45.30;;;;;;4976843;28;20818;-64
2021/04/21 14:57:48;;;;;;;6.17;5.57;;;23.00;47.40;;;;;;4976825;28;20458;-65
2021/04/21 15:00:15;;;;;;;6.50;6.00;;;23.10;48.10;;;;;;4976301;28;20459;-65
2021/04/21 15:02:42;;;;;;;6.27;5.83;;;22.80;47.90;;;;;;4976821;28;20485;-64
2021/04/21 15:05:09;;;;;;;6.43;5.80;;;22.60;47.50;;;;;;4976258;28;20509;-64
2021/04/21 15:07:38;;;;;;;6.83;6.10;;;22.60;49.00;;;;;;4976199;28;20462;-65
2021/04/21 15:10:05;;;;;;;5.20;4.90;;;22.70;50.50;;;;;;4981024;28;20458;-65
2021/04/21 15:12:33;;;;;;;5.83;5.43;;;22.70;49.80;;;;;;4996580;28;20461;-64
2021/04/21 15:15:00;;;;;;;6.43;5.80;;;22.60;50.60;;;;;;4994172;28;20458;-64
2021/04/21 15:17:27;;;;;;;5.67;5.27;;;22.40;49.10;;;;;;4982709;28;20462;-64
2021/04/21 15:19:53;;;;;;;7.00;6.40;;;22.30;48.60;;;;;;4976036;28;20537;-64
2021/04/21 15:22:21;;;;;;;6.90;6.40;;;21.80;51.40;;;;;;4976041;28;20840;-64
2021/04/21 15:24:48;;;;;;;7.50;6.80;;;21.80;52.10;;;;;;4975971;28;20462;-64
2021/04/21 15:27:16;;;;;;;9.80;6.90;;;21.80;51.10;;;;;;4975771;28;20454;-64
2021/04/21 15:29:44;;;;;;;7.20;6.70;;;21.80;50.40;;;;;;4976369;28;20481;-63
2021/04/21 15:32:12;;;;;;;6.90;6.40;;;21.80;53.50;;;;;;4975632;28;20479;-63
2021/04/21 15:34:38;;;;;;;7.23;6.50;;;21.80;51.60;;;;;;4976085;28;20477;-64
2021/04/21 15:37:05;;;;;;;7.47;6.97;;;21.80;50.70;;;;;;4975720;28;20458;-64
2021/04/21 15:39:31;;;;;;;6.80;6.10;;;21.70;50.20;;;;;;4975340;28;20462;-64
2021/04/21 15:41:59;;;;;;;7.00;6.40;;;21.60;51.10;;;;;;4975657;28;20838;-64
2021/04/21 15:44:25;;;;;;;6.73;5.90;;;21.30;51.70;;;;;;4975928;28;20482;-64
2021/04/21 15:46:52;;;;;;;7.03;6.47;;;21.00;51.40;;;;;;4975715;28;20474;-64
2021/04/21 15:49:19;;;;;;;6.50;5.90;;;20.70;51.70;;;;;;4976713;28;20458;-65
2021/04/21 15:51:47;;;;;;;7.17;5.77;;;20.70;52.00;;;;;;4975666;28;20502;-65
2021/04/21 15:54:13;;;;;;;6.30;5.80;;;20.40;51.30;;;;;;4975871;28;20455;-65
2021/04/21 15:56:42;;;;;;;5.80;5.30;;;20.20;51.50;;;;;;4976160;28;20458;-65
2021/04/21 15:59:09;;;;;;;6.70;6.20;;;19.90;51.90;;;;;;4975790;28;20462;-65
2021/04/21 16:01:35;;;;;;;6.70;6.10;;;19.90;52.60;;;;;;4975528;28;20483;-65
2021/04/21 16:04:02;;;;;;;5.93;5.53;;;19.70;51.40;;;;;;4975110;28;20485;-65
2021/04/21 16:06:29;;;;;;;6.10;5.60;;;19.50;52.90;;;;;;4975928;28;20462;-65
2021/04/21 16:08:55;;;;;;;6.50;6.00;;;19.60;53.20;;;;;;4976072;28;20458;-65
2021/04/21 16:11:22;;;;;;;6.20;5.80;;;19.50;53.70;;;;;;4975745;28;20478;-66
2021/04/21 16:13:48;;;;;;;6.70;6.10;;;19.40;53.30;;;;;;4975807;28;20505;-65
2021/04/21 16:16:15;;;;;;;5.87;5.37;;;19.40;53.70;;;;;;4975520;28;20817;-65
2021/04/21 16:18:42;;;;;;;9.33;5.73;;;19.60;54.90;;;;;;4975382;28;20454;-66
2021/04/21 16:21:08;;;;;;;11.07;6.97;;;19.60;53.90;;;;;;4975120;28;20872;-65
2021/04/21 16:23:35;;;;;;;8.17;7.47;;;19.30;51.60;;;;;;4975289;28;20501;-65
2021/04/21 16:26:01;;;;;;;9.20;6.80;;;19.00;49.60;;;;;;4977119;28;20826;-65
2021/04/21 16:28:27;;;;;;;9.53;7.50;;;18.70;49.20;;;;;;4976197;28;20454;-65
2021/04/21 16:30:53;;;;;;;7.37;6.77;;;18.60;50.90;;;;;;4976097;28;20553;-65
2021/04/21 16:33:21;;;;;;;7.83;7.23;;;18.70;50.60;;;;;;4974921;28;20476;-65
2021/04/21 16:35:47;;;;;;;7.83;6.90;;;18.80;51.00;;;;;;4974348;28;20530;-65
2021/04/21 16:38:14;;;;;;;8.03;7.43;;;18.90;50.20;;;;;;4974440;28;20459;-65
2021/04/21 16:40:41;;;;;;;7.37;6.87;;;19.00;50.60;;;;;;4974732;28;20482;-65
2021/04/21 16:43:08;;;;;;;8.23;7.27;;;19.00;50.40;;;;;;4974857;28;20474;-65
2021/04/21 16:45:34;;;;;;;6.50;6.00;;;19.00;50.80;;;;;;4974889;28;20454;-65
2021/04/21 16:48:00;;;;;;;7.57;6.97;;;19.00;50.40;;;;;;4974852;28;20504;-65
2021/04/21 16:50:28;;;;;;;10.67;6.90;;;19.10;50.40;;;;;;4977646;28;20513;-65
2021/04/21 16:52:54;;;;;;;6.93;6.33;;;19.10;51.10;;;;;;4978814;28;20500;-65
2021/04/21 16:55:21;;;;;;;7.27;6.67;;;19.10;51.20;;;;;;4978623;28;20954;-65